sensor_id;sensor_type;location;lat;lon;timestamp;P1;durP1;ratioP1;P2;durP2;ratioP2
16262;SDS011;8239;48.594;8.598;2022-07-04T00:01:28;2.15;;;1.70;;
16262;SDS011;8239;48.594;8.598;2022-07-04T00:03:57;3.40;;;1.67;;
16262;SDS011;8239;48.594;8.598;2022-07-04T00:06:24;1.98;;;1.48;;
16262;SDS011;8239;48.594;8.598;2022-07-04T00:08:52;1.77;;;1.40;;
16262;SDS011;8239;48.594;8.598;2022-07-04T00:11:19;2.05;;;1.40;;
16262;SDS011;8239;48.594;8.598;2022-07-04T00:13:46;1.58;;;1.48;;
16262;SDS011;8239;48.594;8.598;2022-07-04T00:16:14;2.20;;;1.45;;
16262;SDS011;8239;48.594;8.598;2022-07-04T00:18:43;1.65;;;1.50;;
16262;SDS011;8239;48.594;8.598;2022-07-04T00:21:10;1.85;;;1.48;;
16262;SDS011;8239;48.594;8.598;2022-07-04T00:23:37;1.40;;;1.30;;
16262;SDS011;8239;48.594;8.598;2022-07-04T00:26:04;1.60;;;1.50;;
16262;SDS011;8239;48.594;8.598;2022-07-04T00:28:32;3.10;;;1.60;;
16262;SDS011;8239;48.594;8.598;2022-07-04T00:30:59;1.77;;;1.67;;
16262;SDS011;8239;48.594;8.598;2022-07-04T00:33:26;2.28;;;1.55;;
16262;SDS011;8239;48.594;8.598;2022-07-04T00:35:56;2.90;;;1.60;;
16262;SDS011;8239;48.594;8.598;2022-07-04T00:38:23;2.50;;;1.63;;
16262;SDS011;8239;48.594;8.598;2022-07-04T00:40:50;2.72;;;1.70;;
16262;SDS011;8239;48.594;8.598;2022-07-04T00:43:21;2.13;;;1.60;;
16262;SDS011;8239;48.594;8.598;2022-07-04T00:45:50;2.83;;;1.80;;
16262;SDS011;8239;48.594;8.598;2022-07-04T00:48:17;3.17;;;1.75;;
16262;SDS011;8239;48.594;8.598;2022-07-04T00:50:45;2.78;;;1.83;;
16262;SDS011;8239;48.594;8.598;2022-07-04T00:53:14;2.42;;;1.80;;
16262;SDS011;8239;48.594;8.598;2022-07-04T00:55:42;2.10;;;1.60;;
16262;SDS011;8239;48.594;8.598;2022-07-04T00:58:11;1.70;;;1.58;;
16262;SDS011;8239;48.594;8.598;2022-07-04T01:00:39;2.78;;;2.03;;
16262;SDS011;8239;48.594;8.598;2022-07-04T01:03:07;3.35;;;1.73;;
16262;SDS011;8239;48.594;8.598;2022-07-04T01:05:34;1.70;;;1.60;;
16262;SDS011;8239;48.594;8.598;2022-07-04T01:08:02;3.53;;;1.80;;
16262;SDS011;8239;48.594;8.598;2022-07-04T01:10:32;1.83;;;1.70;;
16262;SDS011;8239;48.594;8.598;2022-07-04T01:12:59;1.90;;;1.73;;
16262;SDS011;8239;48.594;8.598;2022-07-04T01:15:27;2.20;;;1.85;;
16262;SDS011;8239;48.594;8.598;2022-07-04T01:17:54;2.67;;;1.77;;
16262;SDS011;8239;48.594;8.598;2022-07-04T01:20:23;3.03;;;1.70;;
16262;SDS011;8239;48.594;8.598;2022-07-04T01:22:50;2.80;;;1.85;;
16262;SDS011;8239;48.594;8.598;2022-07-04T01:25:19;2.92;;;1.95;;
16262;SDS011;8239;48.594;8.598;2022-07-04T01:27:47;1.83;;;1.60;;
16262;SDS011;8239;48.594;8.598;2022-07-04T01:30:14;1.73;;;1.63;;
16262;SDS011;8239;48.594;8.598;2022-07-04T01:32:41;1.70;;;1.60;;
16262;SDS011;8239;48.594;8.598;2022-07-04T01:35:08;4.20;;;1.90;;
16262;SDS011;8239;48.594;8.598;2022-07-04T01:37:39;2.28;;;1.75;;
16262;SDS011;8239;48.594;8.598;2022-07-04T01:40:07;1.77;;;1.60;;
16262;SDS011;8239;48.594;8.598;2022-07-04T01:42:37;2.70;;;1.80;;
16262;SDS011;8239;48.594;8.598;2022-07-04T01:45:05;3.35;;;1.90;;
16262;SDS011;8239;48.594;8.598;2022-07-04T01:47:33;3.28;;;1.92;;
16262;SDS011;8239;48.594;8.598;2022-07-04T01:50:01;3.08;;;1.85;;
16262;SDS011;8239;48.594;8.598;2022-07-04T01:52:28;2.17;;;1.77;;
16262;SDS011;8239;48.594;8.598;2022-07-04T01:54:57;1.90;;;1.70;;
16262;SDS011;8239;48.594;8.598;2022-07-04T01:57:24;3.35;;;1.88;;
16262;SDS011;8239;48.594;8.598;2022-07-04T01:59:52;2.55;;;1.67;;
16262;SDS011;8239;48.594;8.598;2022-07-04T02:02:36;3.40;;;1.73;;
16262;SDS011;8239;48.594;8.598;2022-07-04T02:05:04;2.30;;;1.83;;
16262;SDS011;8239;48.594;8.598;2022-07-04T02:07:32;2.17;;;1.98;;
16262;SDS011;8239;48.594;8.598;2022-07-04T02:10:00;3.40;;;1.80;;
16262;SDS011;8239;48.594;8.598;2022-07-04T02:12:28;3.33;;;1.85;;
16262;SDS011;8239;48.594;8.598;2022-07-04T02:15:13;1.92;;;1.73;;
16262;SDS011;8239;48.594;8.598;2022-07-04T02:17:40;4.97;;;1.95;;
16262;SDS011;8239;48.594;8.598;2022-07-04T02:20:07;2.80;;;1.80;;
16262;SDS011;8239;48.594;8.598;2022-07-04T02:22:36;2.50;;;2.00;;
16262;SDS011;8239;48.594;8.598;2022-07-04T02:25:05;1.77;;;1.45;;
16262;SDS011;8239;48.594;8.598;2022-07-04T02:27:33;2.83;;;2.00;;
16262;SDS011;8239;48.594;8.598;2022-07-04T02:30:01;2.40;;;1.70;;
16262;SDS011;8239;48.594;8.598;2022-07-04T02:32:29;3.38;;;2.03;;
16262;SDS011;8239;48.594;8.598;2022-07-04T02:34:56;2.30;;;1.80;;
16262;SDS011;8239;48.594;8.598;2022-07-04T02:37:23;4.78;;;2.00;;
16262;SDS011;8239;48.594;8.598;2022-07-04T02:39:51;2.65;;;1.92;;
16262;SDS011;8239;48.594;8.598;2022-07-04T02:42:19;2.10;;;1.88;;
16262;SDS011;8239;48.594;8.598;2022-07-04T02:44:47;5.50;;;2.10;;
16262;SDS011;8239;48.594;8.598;2022-07-04T02:47:14;2.10;;;1.90;;
16262;SDS011;8239;48.594;8.598;2022-07-04T02:49:41;3.58;;;1.83;;
16262;SDS011;8239;48.594;8.598;2022-07-04T02:52:09;2.47;;;2.10;;
16262;SDS011;8239;48.594;8.598;2022-07-04T02:54:36;2.53;;;1.90;;
16262;SDS011;8239;48.594;8.598;2022-07-04T02:57:03;3.38;;;2.10;;
16262;SDS011;8239;48.594;8.598;2022-07-04T02:59:32;1.77;;;1.67;;
16262;SDS011;8239;48.594;8.598;2022-07-04T03:01:59;3.05;;;1.60;;
16262;SDS011;8239;48.594;8.598;2022-07-04T03:04:27;3.15;;;1.80;;
16262;SDS011;8239;48.594;8.598;2022-07-04T03:06:54;2.00;;;1.83;;
16262;SDS011;8239;48.594;8.598;2022-07-04T03:09:22;4.18;;;1.98;;
16262;SDS011;8239;48.594;8.598;2022-07-04T03:11:51;2.35;;;2.00;;
16262;SDS011;8239;48.594;8.598;2022-07-04T03:14:19;1.80;;;1.70;;
16262;SDS011;8239;48.594;8.598;2022-07-04T03:16:48;3.00;;;1.90;;
16262;SDS011;8239;48.594;8.598;2022-07-04T03:19:16;2.40;;;2.20;;
16262;SDS011;8239;48.594;8.598;2022-07-04T03:21:43;1.75;;;1.65;;
16262;SDS011;8239;48.594;8.598;2022-07-04T03:24:10;2.13;;;1.92;;
16262;SDS011;8239;48.594;8.598;2022-07-04T03:26:37;1.90;;;1.80;;
16262;SDS011;8239;48.594;8.598;2022-07-04T03:29:05;2.15;;;1.75;;
16262;SDS011;8239;48.594;8.598;2022-07-04T03:31:32;3.03;;;1.90;;
16262;SDS011;8239;48.594;8.598;2022-07-04T03:34:01;2.10;;;1.90;;
16262;SDS011;8239;48.594;8.598;2022-07-04T03:36:29;1.75;;;1.65;;
16262;SDS011;8239;48.594;8.598;2022-07-04T03:38:56;1.80;;;1.70;;
16262;SDS011;8239;48.594;8.598;2022-07-04T03:41:24;3.97;;;2.20;;
16262;SDS011;8239;48.594;8.598;2022-07-04T03:43:54;2.50;;;2.10;;
16262;SDS011;8239;48.594;8.598;2022-07-04T03:46:22;2.40;;;2.20;;
16262;SDS011;8239;48.594;8.598;2022-07-04T03:48:50;5.63;;;2.13;;
16262;SDS011;8239;48.594;8.598;2022-07-04T03:51:18;2.85;;;1.90;;
16262;SDS011;8239;48.594;8.598;2022-07-04T03:53:47;3.60;;;2.70;;
16262;SDS011;8239;48.594;8.598;2022-07-04T03:56:15;2.88;;;2.17;;
16262;SDS011;8239;48.594;8.598;2022-07-04T03:58:43;2.85;;;2.40;;
16262;SDS011;8239;48.594;8.598;2022-07-04T04:01:14;3.17;;;2.13;;
16262;SDS011;8239;48.594;8.598;2022-07-04T04:03:42;3.72;;;2.30;;
16262;SDS011;8239;48.594;8.598;2022-07-04T04:06:28;2.08;;;1.92;;
16262;SDS011;8239;48.594;8.598;2022-07-04T04:08:55;2.20;;;2.10;;
16262;SDS011;8239;48.594;8.598;2022-07-04T04:11:24;2.25;;;2.05;;
16262;SDS011;8239;48.594;8.598;2022-07-04T04:13:52;2.28;;;1.75;;
16262;SDS011;8239;48.594;8.598;2022-07-04T04:16:20;2.30;;;2.10;;
16262;SDS011;8239;48.594;8.598;2022-07-04T04:18:47;3.15;;;2.20;;
16262;SDS011;8239;48.594;8.598;2022-07-04T04:21:14;2.45;;;1.90;;
16262;SDS011;8239;48.594;8.598;2022-07-04T04:23:43;3.45;;;2.10;;
16262;SDS011;8239;48.594;8.598;2022-07-04T04:26:10;2.25;;;2.10;;
16262;SDS011;8239;48.594;8.598;2022-07-04T04:28:38;3.75;;;1.90;;
16262;SDS011;8239;48.594;8.598;2022-07-04T04:31:09;2.67;;;1.92;;
16262;SDS011;8239;48.594;8.598;2022-07-04T04:33:37;2.38;;;2.17;;
16262;SDS011;8239;48.594;8.598;2022-07-04T04:36:05;2.30;;;2.10;;
16262;SDS011;8239;48.594;8.598;2022-07-04T04:38:33;3.65;;;2.30;;
16262;SDS011;8239;48.594;8.598;2022-07-04T04:41:02;1.95;;;1.85;;
16262;SDS011;8239;48.594;8.598;2022-07-04T04:43:29;2.05;;;1.95;;
16262;SDS011;8239;48.594;8.598;2022-07-04T04:45:56;2.05;;;1.90;;
16262;SDS011;8239;48.594;8.598;2022-07-04T04:48:24;2.17;;;1.90;;
16262;SDS011;8239;48.594;8.598;2022-07-04T04:50:51;2.33;;;2.13;;
16262;SDS011;8239;48.594;8.598;2022-07-04T04:53:18;2.03;;;1.92;;
16262;SDS011;8239;48.594;8.598;2022-07-04T04:55:47;2.22;;;2.03;;
16262;SDS011;8239;48.594;8.598;2022-07-04T04:58:17;2.47;;;2.28;;
16262;SDS011;8239;48.594;8.598;2022-07-04T05:00:44;2.30;;;2.15;;
16262;SDS011;8239;48.594;8.598;2022-07-04T05:03:13;2.50;;;2.30;;
16262;SDS011;8239;48.594;8.598;2022-07-04T05:05:41;3.35;;;2.40;;
16262;SDS011;8239;48.594;8.598;2022-07-04T05:08:08;3.90;;;2.00;;
16262;SDS011;8239;48.594;8.598;2022-07-04T05:10:36;2.75;;;1.95;;
16262;SDS011;8239;48.594;8.598;2022-07-04T05:13:04;2.22;;;2.00;;
16262;SDS011;8239;48.594;8.598;2022-07-04T05:15:33;2.30;;;1.77;;
16262;SDS011;8239;48.594;8.598;2022-07-04T05:18:01;2.53;;;2.05;;
16262;SDS011;8239;48.594;8.598;2022-07-04T05:20:28;2.90;;;2.22;;
16262;SDS011;8239;48.594;8.598;2022-07-04T05:22:55;2.08;;;1.90;;
16262;SDS011;8239;48.594;8.598;2022-07-04T05:25:24;3.15;;;2.15;;
16262;SDS011;8239;48.594;8.598;2022-07-04T05:27:51;2.65;;;1.85;;
16262;SDS011;8239;48.594;8.598;2022-07-04T05:30:19;3.10;;;2.00;;
16262;SDS011;8239;48.594;8.598;2022-07-04T05:32:48;1.60;;;1.50;;
16262;SDS011;8239;48.594;8.598;2022-07-04T05:35:15;2.10;;;1.88;;
16262;SDS011;8239;48.594;8.598;2022-07-04T05:37:42;1.80;;;1.70;;
16262;SDS011;8239;48.594;8.598;2022-07-04T05:40:10;2.30;;;1.60;;
16262;SDS011;8239;48.594;8.598;2022-07-04T05:42:38;2.30;;;1.85;;
16262;SDS011;8239;48.594;8.598;2022-07-04T05:45:06;4.55;;;1.92;;
16262;SDS011;8239;48.594;8.598;2022-07-04T05:47:33;1.73;;;1.58;;
16262;SDS011;8239;48.594;8.598;2022-07-04T05:50:02;2.92;;;1.75;;
16262;SDS011;8239;48.594;8.598;2022-07-04T05:52:29;2.28;;;1.70;;
16262;SDS011;8239;48.594;8.598;2022-07-04T05:54:57;2.60;;;1.83;;
16262;SDS011;8239;48.594;8.598;2022-07-04T05:57:24;3.30;;;1.70;;
16262;SDS011;8239;48.594;8.598;2022-07-04T05:59:52;1.80;;;1.70;;
16262;SDS011;8239;48.594;8.598;2022-07-04T06:02:20;2.15;;;1.95;;
16262;SDS011;8239;48.594;8.598;2022-07-04T06:04:48;2.10;;;2.00;;
16262;SDS011;8239;48.594;8.598;2022-07-04T06:07:18;2.53;;;2.05;;
16262;SDS011;8239;48.594;8.598;2022-07-04T06:09:46;2.00;;;1.80;;
16262;SDS011;8239;48.594;8.598;2022-07-04T06:12:13;2.80;;;2.20;;
16262;SDS011;8239;48.594;8.598;2022-07-04T06:14:40;3.75;;;2.00;;
16262;SDS011;8239;48.594;8.598;2022-07-04T06:17:07;3.60;;;1.77;;
16262;SDS011;8239;48.594;8.598;2022-07-04T06:19:35;1.85;;;1.70;;
16262;SDS011;8239;48.594;8.598;2022-07-04T06:22:02;1.75;;;1.65;;
16262;SDS011;8239;48.594;8.598;2022-07-04T06:24:32;2.25;;;1.60;;
16262;SDS011;8239;48.594;8.598;2022-07-04T06:26:59;2.15;;;1.70;;
16262;SDS011;8239;48.594;8.598;2022-07-04T06:29:28;2.03;;;1.70;;
16262;SDS011;8239;48.594;8.598;2022-07-04T06:31:56;3.67;;;1.60;;
16262;SDS011;8239;48.594;8.598;2022-07-04T06:34:23;2.33;;;1.58;;
16262;SDS011;8239;48.594;8.598;2022-07-04T06:37:07;2.63;;;1.60;;
16262;SDS011;8239;48.594;8.598;2022-07-04T06:39:36;1.58;;;1.48;;
16262;SDS011;8239;48.594;8.598;2022-07-04T06:42:04;1.67;;;1.50;;
16262;SDS011;8239;48.594;8.598;2022-07-04T06:44:31;2.42;;;1.60;;
16262;SDS011;8239;48.594;8.598;2022-07-04T06:46:59;1.60;;;1.50;;
16262;SDS011;8239;48.594;8.598;2022-07-04T06:49:27;1.98;;;1.60;;
16262;SDS011;8239;48.594;8.598;2022-07-04T06:51:54;1.52;;;1.40;;
16262;SDS011;8239;48.594;8.598;2022-07-04T06:54:22;2.50;;;1.60;;
16262;SDS011;8239;48.594;8.598;2022-07-04T06:56:51;1.70;;;1.60;;
16262;SDS011;8239;48.594;8.598;2022-07-04T06:59:19;3.20;;;1.40;;
16262;SDS011;8239;48.594;8.598;2022-07-04T07:01:46;1.63;;;1.52;;
16262;SDS011;8239;48.594;8.598;2022-07-04T07:04:14;1.83;;;1.50;;
16262;SDS011;8239;48.594;8.598;2022-07-04T07:06:41;2.50;;;1.45;;
16262;SDS011;8239;48.594;8.598;2022-07-04T07:09:09;3.05;;;1.80;;
16262;SDS011;8239;48.594;8.598;2022-07-04T07:11:36;1.60;;;1.50;;
16262;SDS011;8239;48.594;8.598;2022-07-04T07:14:05;1.50;;;1.40;;
16262;SDS011;8239;48.594;8.598;2022-07-04T07:16:32;2.22;;;1.35;;
16262;SDS011;8239;48.594;8.598;2022-07-04T07:19:00;1.80;;;1.67;;
16262;SDS011;8239;48.594;8.598;2022-07-04T07:21:28;2.47;;;1.60;;
16262;SDS011;8239;48.594;8.598;2022-07-04T07:23:55;3.17;;;1.77;;
16262;SDS011;8239;48.594;8.598;2022-07-04T07:26:22;1.70;;;1.55;;
16262;SDS011;8239;48.594;8.598;2022-07-04T07:28:49;2.42;;;1.40;;
16262;SDS011;8239;48.594;8.598;2022-07-04T07:31:18;1.65;;;1.50;;
16262;SDS011;8239;48.594;8.598;2022-07-04T07:33:49;2.15;;;1.50;;
16262;SDS011;8239;48.594;8.598;2022-07-04T07:36:16;2.25;;;1.60;;
16262;SDS011;8239;48.594;8.598;2022-07-04T07:38:44;1.65;;;1.40;;
16262;SDS011;8239;48.594;8.598;2022-07-04T07:41:11;1.58;;;1.48;;
16262;SDS011;8239;48.594;8.598;2022-07-04T07:43:38;2.25;;;1.50;;
16262;SDS011;8239;48.594;8.598;2022-07-04T07:46:06;2.28;;;1.67;;
16262;SDS011;8239;48.594;8.598;2022-07-04T07:48:36;1.67;;;1.48;;
16262;SDS011;8239;48.594;8.598;2022-07-04T07:51:04;2.70;;;1.60;;
16262;SDS011;8239;48.594;8.598;2022-07-04T07:53:31;2.35;;;1.65;;
16262;SDS011;8239;48.594;8.598;2022-07-04T07:55:59;2.70;;;1.63;;
16262;SDS011;8239;48.594;8.598;2022-07-04T07:58:28;1.42;;;1.33;;
16262;SDS011;8239;48.594;8.598;2022-07-04T08:00:55;2.22;;;1.60;;
16262;SDS011;8239;48.594;8.598;2022-07-04T08:03:23;2.35;;;1.42;;
16262;SDS011;8239;48.594;8.598;2022-07-04T08:13:20;1.83;;;1.33;;
16262;SDS011;8239;48.594;8.598;2022-07-04T08:15:53;2.15;;;1.50;;
16262;SDS011;8239;48.594;8.598;2022-07-04T08:18:28;2.30;;;1.55;;
16262;SDS011;8239;48.594;8.598;2022-07-04T08:21:04;1.60;;;1.50;;
16262;SDS011;8239;48.594;8.598;2022-07-04T08:23:35;2.25;;;1.60;;
16262;SDS011;8239;48.594;8.598;2022-07-04T08:26:03;2.53;;;2.00;;
16262;SDS011;8239;48.594;8.598;2022-07-04T08:28:41;2.33;;;1.77;;
16262;SDS011;8239;48.594;8.598;2022-07-04T08:31:09;2.55;;;1.70;;
16262;SDS011;8239;48.594;8.598;2022-07-04T08:33:44;1.98;;;1.70;;
16262;SDS011;8239;48.594;8.598;2022-07-04T08:36:13;1.67;;;1.58;;
16262;SDS011;8239;48.594;8.598;2022-07-04T08:38:56;1.83;;;1.45;;
16262;SDS011;8239;48.594;8.598;2022-07-04T08:41:38;1.73;;;1.60;;
16262;SDS011;8239;48.594;8.598;2022-07-04T08:44:08;1.60;;;1.50;;
16262;SDS011;8239;48.594;8.598;2022-07-04T08:47:17;2.60;;;1.80;;
16262;SDS011;8239;48.594;8.598;2022-07-04T08:49:51;1.95;;;1.83;;
16262;SDS011;8239;48.594;8.598;2022-07-04T08:55:43;1.83;;;1.73;;
16262;SDS011;8239;48.594;8.598;2022-07-04T08:58:56;1.58;;;1.48;;
16262;SDS011;8239;48.594;8.598;2022-07-04T09:02:21;1.75;;;1.60;;
16262;SDS011;8239;48.594;8.598;2022-07-04T09:05:06;1.58;;;1.38;;
16262;SDS011;8239;48.594;8.598;2022-07-04T09:07:38;2.30;;;1.70;;
16262;SDS011;8239;48.594;8.598;2022-07-04T09:10:11;2.10;;;1.65;;
16262;SDS011;8239;48.594;8.598;2022-07-04T09:13:30;2.50;;;1.60;;
16262;SDS011;8239;48.594;8.598;2022-07-04T09:16:01;1.95;;;1.70;;
16262;SDS011;8239;48.594;8.598;2022-07-04T09:18:33;1.70;;;1.52;;
16262;SDS011;8239;48.594;8.598;2022-07-04T09:24:16;1.67;;;1.58;;
16262;SDS011;8239;48.594;8.598;2022-07-04T09:27:05;2.15;;;1.80;;
16262;SDS011;8239;48.594;8.598;2022-07-04T09:29:51;1.90;;;1.60;;
16262;SDS011;8239;48.594;8.598;2022-07-04T09:32:41;2.00;;;1.80;;
16262;SDS011;8239;48.594;8.598;2022-07-04T09:35:11;2.22;;;1.90;;
16262;SDS011;8239;48.594;8.598;2022-07-04T09:37:49;2.28;;;1.55;;
16262;SDS011;8239;48.594;8.598;2022-07-04T09:40:23;2.17;;;1.40;;
16262;SDS011;8239;48.594;8.598;2022-07-04T09:43:18;3.08;;;1.50;;
16262;SDS011;8239;48.594;8.598;2022-07-04T09:46:13;1.88;;;1.52;;
16262;SDS011;8239;48.594;8.598;2022-07-04T09:48:57;2.85;;;1.50;;
16262;SDS011;8239;48.594;8.598;2022-07-04T09:51:39;1.60;;;1.50;;
16262;SDS011;8239;48.594;8.598;2022-07-04T09:56:57;1.67;;;1.58;;
16262;SDS011;8239;48.594;8.598;2022-07-04T09:59:43;1.60;;;1.50;;
16262;SDS011;8239;48.594;8.598;2022-07-04T10:02:14;1.85;;;1.45;;
16262;SDS011;8239;48.594;8.598;2022-07-04T10:08:04;2.03;;;1.45;;
16262;SDS011;8239;48.594;8.598;2022-07-04T10:10:45;1.80;;;1.70;;
16262;SDS011;8239;48.594;8.598;2022-07-04T10:13:21;2.05;;;1.65;;
16262;SDS011;8239;48.594;8.598;2022-07-04T10:15:54;1.60;;;1.50;;
16262;SDS011;8239;48.594;8.598;2022-07-04T10:18:33;2.05;;;1.40;;
16262;SDS011;8239;48.594;8.598;2022-07-04T10:24:22;1.63;;;1.52;;
16262;SDS011;8239;48.594;8.598;2022-07-04T10:26:51;1.83;;;1.33;;
16262;SDS011;8239;48.594;8.598;2022-07-04T10:29:20;1.55;;;1.45;;
16262;SDS011;8239;48.594;8.598;2022-07-04T10:31:50;1.50;;;1.40;;
16262;SDS011;8239;48.594;8.598;2022-07-04T10:34:23;1.50;;;1.40;;
16262;SDS011;8239;48.594;8.598;2022-07-04T10:36:56;2.10;;;1.60;;
16262;SDS011;8239;48.594;8.598;2022-07-04T10:39:28;1.60;;;1.33;;
16262;SDS011;8239;48.594;8.598;2022-07-04T10:42:09;3.38;;;1.45;;
16262;SDS011;8239;48.594;8.598;2022-07-04T10:44:49;2.45;;;1.60;;
16262;SDS011;8239;48.594;8.598;2022-07-04T10:47:27;2.45;;;1.38;;
16262;SDS011;8239;48.594;8.598;2022-07-04T10:50:08;2.63;;;1.50;;
16262;SDS011;8239;48.594;8.598;2022-07-04T10:52:56;2.25;;;1.67;;
16262;SDS011;8239;48.594;8.598;2022-07-04T10:55:35;1.58;;;1.48;;
16262;SDS011;8239;48.594;8.598;2022-07-04T10:58:02;1.92;;;1.42;;
16262;SDS011;8239;48.594;8.598;2022-07-04T11:00:29;1.83;;;1.73;;
16262;SDS011;8239;48.594;8.598;2022-07-04T11:03:05;1.70;;;1.55;;
16262;SDS011;8239;48.594;8.598;2022-07-04T11:05:43;1.65;;;1.50;;
16262;SDS011;8239;48.594;8.598;2022-07-04T11:08:11;1.60;;;1.50;;
16262;SDS011;8239;48.594;8.598;2022-07-04T11:10:40;1.80;;;1.50;;
16262;SDS011;8239;48.594;8.598;2022-07-04T11:16:08;1.70;;;1.60;;
16262;SDS011;8239;48.594;8.598;2022-07-04T11:18:38;2.25;;;1.70;;
16262;SDS011;8239;48.594;8.598;2022-07-04T11:27:54;2.15;;;1.70;;
16262;SDS011;8239;48.594;8.598;2022-07-04T11:30:50;1.70;;;1.60;;
16262;SDS011;8239;48.594;8.598;2022-07-04T11:36:55;1.50;;;1.45;;
16262;SDS011;8239;48.594;8.598;2022-07-04T11:45:53;1.77;;;1.67;;
16262;SDS011;8239;48.594;8.598;2022-07-04T11:48:30;1.80;;;1.60;;
16262;SDS011;8239;48.594;8.598;2022-07-04T11:51:23;3.13;;;1.60;;
16262;SDS011;8239;48.594;8.598;2022-07-04T11:54:24;1.63;;;1.52;;
16262;SDS011;8239;48.594;8.598;2022-07-04T11:57:13;2.65;;;1.73;;
16262;SDS011;8239;48.594;8.598;2022-07-04T12:06:15;1.73;;;1.60;;
16262;SDS011;8239;48.594;8.598;2022-07-04T12:09:02;2.70;;;1.70;;
16262;SDS011;8239;48.594;8.598;2022-07-04T12:12:13;2.35;;;1.60;;
16262;SDS011;8239;48.594;8.598;2022-07-04T12:15:09;2.72;;;1.77;;
16262;SDS011;8239;48.594;8.598;2022-07-04T12:17:40;2.20;;;1.50;;
16262;SDS011;8239;48.594;8.598;2022-07-04T12:34:24;1.70;;;1.60;;
16262;SDS011;8239;48.594;8.598;2022-07-04T12:37:06;2.13;;;1.50;;
16262;SDS011;8239;48.594;8.598;2022-07-04T12:39:42;1.90;;;1.60;;
16262;SDS011;8239;48.594;8.598;2022-07-04T12:42:17;2.55;;;1.40;;
16262;SDS011;8239;48.594;8.598;2022-07-04T12:44:48;1.52;;;1.40;;
16262;SDS011;8239;48.594;8.598;2022-07-04T12:47:23;2.33;;;1.42;;
16262;SDS011;8239;48.594;8.598;2022-07-04T12:49:55;3.03;;;1.77;;
16262;SDS011;8239;48.594;8.598;2022-07-04T12:52:26;2.08;;;1.60;;
16262;SDS011;8239;48.594;8.598;2022-07-04T12:55:04;1.92;;;1.60;;
16262;SDS011;8239;48.594;8.598;2022-07-04T12:57:38;1.80;;;1.60;;
16262;SDS011;8239;48.594;8.598;2022-07-04T13:00:14;3.15;;;1.70;;
16262;SDS011;8239;48.594;8.598;2022-07-04T13:02:44;3.17;;;1.60;;
16262;SDS011;8239;48.594;8.598;2022-07-04T13:05:19;3.42;;;1.60;;
16262;SDS011;8239;48.594;8.598;2022-07-04T13:07:51;2.08;;;1.60;;
16262;SDS011;8239;48.594;8.598;2022-07-04T13:10:27;1.60;;;1.50;;
16262;SDS011;8239;48.594;8.598;2022-07-04T13:13:11;1.73;;;1.60;;
16262;SDS011;8239;48.594;8.598;2022-07-04T13:15:42;3.25;;;1.60;;
16262;SDS011;8239;48.594;8.598;2022-07-04T13:18:12;2.40;;;1.50;;
16262;SDS011;8239;48.594;8.598;2022-07-04T13:20:43;2.17;;;1.42;;
16262;SDS011;8239;48.594;8.598;2022-07-04T13:23:15;2.50;;;1.50;;
16262;SDS011;8239;48.594;8.598;2022-07-04T13:25:46;2.45;;;1.65;;
16262;SDS011;8239;48.594;8.598;2022-07-04T13:28:13;2.15;;;1.60;;
16262;SDS011;8239;48.594;8.598;2022-07-04T13:30:40;2.10;;;1.55;;
16262;SDS011;8239;48.594;8.598;2022-07-04T13:33:09;3.10;;;1.70;;
16262;SDS011;8239;48.594;8.598;2022-07-04T13:35:45;1.75;;;1.50;;
16262;SDS011;8239;48.594;8.598;2022-07-04T13:38:35;1.60;;;1.50;;
16262;SDS011;8239;48.594;8.598;2022-07-04T13:41:04;2.05;;;1.67;;
16262;SDS011;8239;48.594;8.598;2022-07-04T13:43:38;2.80;;;1.80;;
16262;SDS011;8239;48.594;8.598;2022-07-04T13:46:06;1.90;;;1.60;;
16262;SDS011;8239;48.594;8.598;2022-07-04T13:48:35;2.70;;;1.70;;
16262;SDS011;8239;48.594;8.598;2022-07-04T13:51:17;1.45;;;1.45;;
16262;SDS011;8239;48.594;8.598;2022-07-04T13:53:52;1.35;;;1.35;;
16262;SDS011;8239;48.594;8.598;2022-07-04T13:56:25;3.20;;;1.63;;
16262;SDS011;8239;48.594;8.598;2022-07-04T13:58:57;1.55;;;1.42;;
16262;SDS011;8239;48.594;8.598;2022-07-04T14:01:25;1.58;;;1.48;;
16262;SDS011;8239;48.594;8.598;2022-07-04T14:04:08;1.73;;;1.63;;
16262;SDS011;8239;48.594;8.598;2022-07-04T14:06:44;1.67;;;1.45;;
16262;SDS011;8239;48.594;8.598;2022-07-04T14:09:25;2.00;;;1.67;;
16262;SDS011;8239;48.594;8.598;2022-07-04T14:11:56;1.80;;;1.52;;
16262;SDS011;8239;48.594;8.598;2022-07-04T14:14:30;1.50;;;1.40;;
16262;SDS011;8239;48.594;8.598;2022-07-04T14:17:14;2.35;;;1.88;;
16262;SDS011;8239;48.594;8.598;2022-07-04T14:19:53;1.98;;;1.77;;
16262;SDS011;8239;48.594;8.598;2022-07-04T14:22:32;2.70;;;1.80;;
16262;SDS011;8239;48.594;8.598;2022-07-04T14:25:11;1.85;;;1.70;;
16262;SDS011;8239;48.594;8.598;2022-07-04T14:27:44;1.73;;;1.60;;
16262;SDS011;8239;48.594;8.598;2022-07-04T14:30:17;2.47;;;1.77;;
16262;SDS011;8239;48.594;8.598;2022-07-04T14:32:49;3.13;;;1.92;;
16262;SDS011;8239;48.594;8.598;2022-07-04T14:35:21;1.80;;;1.70;;
16262;SDS011;8239;48.594;8.598;2022-07-04T14:38:05;1.75;;;1.65;;
16262;SDS011;8239;48.594;8.598;2022-07-04T14:40:38;1.90;;;1.80;;
16262;SDS011;8239;48.594;8.598;2022-07-04T14:43:11;2.20;;;1.98;;
16262;SDS011;8239;48.594;8.598;2022-07-04T14:45:41;1.85;;;1.70;;
16262;SDS011;8239;48.594;8.598;2022-07-04T14:48:09;2.08;;;1.80;;
16262;SDS011;8239;48.594;8.598;2022-07-04T14:50:43;2.60;;;1.70;;
16262;SDS011;8239;48.594;8.598;2022-07-04T14:53:26;1.85;;;1.70;;
16262;SDS011;8239;48.594;8.598;2022-07-04T14:55:57;1.85;;;1.60;;
16262;SDS011;8239;48.594;8.598;2022-07-04T14:58:24;2.20;;;1.70;;
16262;SDS011;8239;48.594;8.598;2022-07-04T15:00:51;1.80;;;1.70;;
16262;SDS011;8239;48.594;8.598;2022-07-04T15:03:22;2.25;;;1.70;;
16262;SDS011;8239;48.594;8.598;2022-07-04T15:05:50;1.80;;;1.60;;
16262;SDS011;8239;48.594;8.598;2022-07-04T15:08:18;1.70;;;1.60;;
16262;SDS011;8239;48.594;8.598;2022-07-04T15:10:47;1.70;;;1.50;;
16262;SDS011;8239;48.594;8.598;2022-07-04T15:13:14;1.95;;;1.60;;
16262;SDS011;8239;48.594;8.598;2022-07-04T15:15:42;2.58;;;1.45;;
16262;SDS011;8239;48.594;8.598;2022-07-04T15:18:10;1.58;;;1.48;;
16262;SDS011;8239;48.594;8.598;2022-07-04T15:20:40;1.70;;;1.60;;
16262;SDS011;8239;48.594;8.598;2022-07-04T15:23:24;1.50;;;1.40;;
16262;SDS011;8239;48.594;8.598;2022-07-04T15:26:10;3.17;;;1.63;;
16262;SDS011;8239;48.594;8.598;2022-07-04T15:28:38;1.50;;;1.40;;
16262;SDS011;8239;48.594;8.598;2022-07-04T15:31:05;2.55;;;1.40;;
16262;SDS011;8239;48.594;8.598;2022-07-04T15:33:32;1.50;;;1.40;;
16262;SDS011;8239;48.594;8.598;2022-07-04T15:36:00;1.80;;;1.58;;
16262;SDS011;8239;48.594;8.598;2022-07-04T15:38:28;1.40;;;1.30;;
16262;SDS011;8239;48.594;8.598;2022-07-04T15:40:55;2.45;;;1.40;;
16262;SDS011;8239;48.594;8.598;2022-07-04T15:43:25;1.95;;;1.50;;
16262;SDS011;8239;48.594;8.598;2022-07-04T15:45:54;1.52;;;1.40;;
16262;SDS011;8239;48.594;8.598;2022-07-04T15:48:22;2.25;;;1.80;;
16262;SDS011;8239;48.594;8.598;2022-07-04T15:50:49;2.25;;;1.40;;
16262;SDS011;8239;48.594;8.598;2022-07-04T15:53:17;2.78;;;1.50;;
16262;SDS011;8239;48.594;8.598;2022-07-04T15:55:44;1.30;;;1.20;;
16262;SDS011;8239;48.594;8.598;2022-07-04T15:58:11;2.72;;;1.40;;
16262;SDS011;8239;48.594;8.598;2022-07-04T16:00:39;1.48;;;1.30;;
16262;SDS011;8239;48.594;8.598;2022-07-04T16:03:07;1.60;;;1.50;;
16262;SDS011;8239;48.594;8.598;2022-07-04T16:05:35;3.42;;;1.67;;
16262;SDS011;8239;48.594;8.598;2022-07-04T16:08:02;2.60;;;1.48;;
16262;SDS011;8239;48.594;8.598;2022-07-04T16:10:32;4.75;;;1.55;;
16262;SDS011;8239;48.594;8.598;2022-07-04T16:12:59;1.30;;;1.20;;
16262;SDS011;8239;48.594;8.598;2022-07-04T16:15:27;2.08;;;1.20;;
16262;SDS011;8239;48.594;8.598;2022-07-04T16:17:55;2.97;;;1.70;;
16262;SDS011;8239;48.594;8.598;2022-07-04T16:20:23;1.95;;;1.48;;
16262;SDS011;8239;48.594;8.598;2022-07-04T16:22:55;2.95;;;1.60;;
16262;SDS011;8239;48.594;8.598;2022-07-04T16:25:41;2.40;;;1.75;;
16262;SDS011;8239;48.594;8.598;2022-07-04T16:28:10;1.45;;;1.35;;
16262;SDS011;8239;48.594;8.598;2022-07-04T16:30:37;1.58;;;1.48;;